KBHM/BHM METAR and TAF weather

Enter ICAO airport designator
Station Type Date Time Source
KBHM METAR 2018/12/13 14:53 UTC NOAA

KBHM 131453Z 10005KT 10SM BKN042 09/02 A3018 RMK AO2 SLP219 T00890022 53015


Station Type Date Time Source
KBHM Decoded METAR 2018/12/13 14:53 UTC NOAA

BIRMINGHAM INT'L AIRPORT, AL, United States (KBHM) 33-34N 086-45W 197M
Dec 13, 2018 - 09:53 AM EST / 2018.12.13 1453 UTC
Wind: from the E (100 degrees) at 6 MPH (5 KT):0
Visibility: 10 mile(s):0
Sky conditions: mostly cloudy
Temperature: 48.0 F (8.9 C)
Dew Point: 36.0 F (2.2 C)
Relative Humidity: 62%
Pressure (altimeter): 30.18 in. Hg (1022 hPa)
Pressure tendency: 0.04 inches (1.5 hPa) higher than three hours ago
ob: KBHM 131453Z 10005KT 10SM BKN042 09/02 A3018 RMK AO2 SLP219 T00890022 53015
cycle: 15

Station Type Date Time Source
KBHM TAF 2018/12/13 15:10 UTC NOAA

TAF
AMD KBHM 131508Z 1315/1412 14008KT P6SM BKN040
FM140200 11010G18KT 5SM -RA BR BKN015 OVC025
FM140600 09012G20KT 4SM RA BR OVC015


Example: see airport list